createdAt,value
2018-10-06T00:00:20.764Z,7.57
2018-10-06T00:01:24.358Z,8.33
2018-10-06T00:02:27.992Z,8.20
2018-10-06T00:03:31.491Z,7.73
2018-10-06T00:04:35.161Z,7.80
2018-10-06T00:05:38.736Z,8.23
2018-10-06T00:06:42.222Z,7.93
2018-10-06T00:07:45.854Z,7.03
2018-10-06T00:08:49.392Z,7.20
2018-10-06T00:09:52.961Z,7.90
2018-10-06T00:10:56.458Z,7.20
2018-10-06T00:12:00.015Z,7.67
2018-10-06T00:13:03.598Z,8.10
2018-10-06T00:14:07.099Z,7.37
2018-10-06T00:15:11.063Z,7.70
2018-10-06T00:16:14.642Z,8.50
2018-10-06T00:17:18.588Z,8.07
2018-10-06T00:18:22.077Z,8.03
2018-10-06T00:19:25.611Z,7.93
2018-10-06T00:20:29.138Z,7.57
2018-10-06T00:21:32.779Z,7.80
2018-10-06T00:22:36.417Z,8.23
2018-10-06T00:23:39.949Z,8.30
2018-10-06T00:24:43.573Z,7.93
2018-10-06T00:25:47.163Z,8.17
2018-10-06T00:26:50.751Z,8.43
2018-10-06T00:27:54.236Z,8.37
2018-10-06T00:28:57.915Z,8.27
2018-10-06T00:30:01.489Z,7.83
2018-10-06T00:31:05.089Z,8.07
2018-10-06T00:32:08.699Z,8.77
2018-10-06T00:33:12.369Z,9.30
2018-10-06T00:34:15.974Z,8.37
2018-10-06T00:35:20.575Z,8.77
2018-10-06T00:36:24.193Z,7.77
2018-10-06T00:37:27.793Z,7.67
2018-10-06T00:38:31.370Z,8.33
2018-10-06T00:39:34.928Z,8.73
2018-10-06T00:40:38.458Z,8.20
2018-10-06T00:41:41.984Z,8.37
2018-10-06T00:42:45.691Z,7.80
2018-10-06T00:43:49.250Z,7.93
2018-10-06T00:44:52.810Z,7.53
2018-10-06T00:45:56.410Z,8.20
2018-10-06T00:46:59.985Z,7.67
2018-10-06T00:48:03.515Z,8.47
2018-10-06T00:49:07.033Z,8.00
2018-10-06T00:50:10.628Z,8.27
2018-10-06T00:51:14.321Z,7.73
2018-10-06T00:52:17.833Z,7.83
2018-10-06T00:53:21.416Z,9.00
2018-10-06T00:54:25.053Z,8.83
2018-10-06T00:55:28.737Z,8.33
2018-10-06T00:56:32.278Z,8.67
2018-10-06T00:57:35.845Z,9.63
2018-10-06T00:58:39.550Z,8.13
2018-10-06T00:59:43.101Z,8.30
2018-10-06T01:00:46.652Z,9.63
2018-10-06T01:01:50.412Z,9.90
2018-10-06T01:02:54.057Z,10.33
2018-10-06T01:03:57.726Z,10.30
2018-10-06T01:05:01.259Z,9.90
2018-10-06T01:06:04.896Z,10.67
2018-10-06T01:07:08.463Z,11.07
2018-10-06T01:08:12.047Z,10.97
2018-10-06T01:09:15.557Z,16.60
2018-10-06T01:10:19.141Z,15.80
2018-10-06T01:11:22.758Z,18.60
2018-10-06T01:12:27.325Z,23.10
2018-10-06T01:13:31.017Z,17.33
2018-10-06T01:14:34.675Z,12.50
2018-10-06T01:15:38.243Z,13.13
2018-10-06T01:16:41.778Z,13.00
2018-10-06T01:17:45.423Z,13.20
2018-10-06T01:18:48.954Z,10.20
2018-10-06T01:19:52.579Z,10.50
2018-10-06T01:20:56.084Z,12.47
2018-10-06T01:21:59.596Z,9.67
2018-10-06T01:23:03.110Z,10.17
2018-10-06T01:24:06.646Z,17.40
2018-10-06T01:25:10.186Z,18.13
2018-10-06T01:26:13.740Z,18.70
2018-10-06T01:27:17.394Z,16.80
2018-10-06T01:28:20.943Z,14.37
2018-10-06T01:29:24.489Z,13.80
2018-10-06T01:30:28.131Z,13.83
2018-10-06T01:31:31.723Z,16.87
2018-10-06T01:32:35.323Z,16.03
2018-10-06T01:33:38.888Z,13.83
2018-10-06T01:34:43.561Z,14.93
2018-10-06T01:35:47.278Z,14.60
2018-10-06T01:36:50.860Z,15.93
2018-10-06T01:37:54.385Z,15.10
2018-10-06T01:38:57.930Z,15.47
2018-10-06T01:40:01.469Z,15.13
2018-10-06T01:41:05.066Z,15.27
2018-10-06T01:42:08.763Z,15.63
2018-10-06T01:43:12.370Z,15.30
2018-10-06T01:44:15.947Z,13.83
2018-10-06T01:45:19.542Z,13.87
2018-10-06T01:46:23.095Z,15.17
2018-10-06T01:47:26.655Z,13.70
2018-10-06T01:48:30.280Z,14.33
2018-10-06T01:49:33.842Z,11.07
2018-10-06T01:50:37.515Z,10.80
2018-10-06T01:51:41.023Z,11.30
2018-10-06T01:52:44.550Z,11.77
2018-10-06T01:53:48.107Z,11.47
2018-10-06T01:54:51.637Z,12.57
2018-10-06T01:55:55.260Z,11.23
2018-10-06T01:56:58.845Z,11.43
2018-10-06T01:58:02.425Z,11.10
2018-10-06T01:59:06.031Z,10.37
2018-10-06T02:00:09.618Z,11.20
2018-10-06T02:01:13.222Z,9.87
2018-10-06T02:02:16.756Z,10.50
2018-10-06T02:03:20.513Z,9.70
2018-10-06T02:04:24.841Z,10.17
2018-10-06T02:05:28.464Z,11.70
2018-10-06T02:06:31.965Z,10.37
2018-10-06T02:07:35.631Z,10.20
2018-10-06T02:08:39.271Z,10.87
2018-10-06T02:09:43.096Z,10.37
2018-10-06T02:10:46.784Z,10.40
2018-10-06T02:11:50.539Z,12.80
2018-10-06T02:12:54.161Z,12.07
2018-10-06T02:13:57.722Z,11.60
2018-10-06T02:15:01.224Z,11.33
2018-10-06T02:16:04.778Z,11.83
2018-10-06T02:17:08.334Z,11.93
2018-10-06T02:18:12.065Z,12.90
2018-10-06T02:19:15.640Z,12.30
2018-10-06T02:20:19.225Z,13.50
2018-10-06T02:21:22.927Z,12.70
2018-10-06T02:22:26.476Z,12.63
2018-10-06T02:23:29.993Z,11.90
2018-10-06T02:24:33.546Z,12.13
2018-10-06T02:25:37.349Z,12.33
2018-10-06T02:26:41.161Z,11.50
2018-10-06T02:27:44.788Z,13.27
2018-10-06T02:28:48.313Z,13.20
2018-10-06T02:29:51.867Z,13.43
2018-10-06T02:30:55.428Z,13.10
2018-10-06T02:31:58.957Z,13.53
2018-10-06T02:33:02.510Z,12.70
2018-10-06T02:34:06.056Z,13.00
2018-10-06T02:35:10.473Z,11.17
2018-10-06T02:36:14.003Z,10.90
2018-10-06T02:37:17.534Z,10.10
2018-10-06T02:38:21.167Z,11.43
2018-10-06T02:39:24.695Z,11.07
2018-10-06T02:40:28.271Z,10.87
2018-10-06T02:41:31.804Z,11.37
2018-10-06T02:42:35.311Z,11.23
2018-10-06T02:43:38.877Z,10.43
2018-10-06T02:44:42.431Z,12.40
2018-10-06T02:45:46.283Z,11.43
2018-10-06T02:46:49.825Z,10.87
2018-10-06T02:47:53.354Z,11.13
2018-10-06T02:48:56.892Z,10.50
2018-10-06T02:50:00.430Z,11.30
2018-10-06T02:51:03.971Z,10.63
2018-10-06T02:52:07.498Z,10.23
2018-10-06T02:53:11.485Z,11.47
2018-10-06T02:54:15.022Z,10.87
2018-10-06T02:55:18.525Z,11.40
2018-10-06T02:56:22.275Z,10.97
2018-10-06T02:57:25.833Z,11.83
2018-10-06T02:58:29.645Z,10.70
2018-10-06T02:59:33.191Z,11.97
2018-10-06T03:00:36.790Z,13.00
2018-10-06T03:01:40.347Z,12.57
2018-10-06T03:02:43.878Z,11.67
2018-10-06T03:03:47.592Z,11.87
2018-10-06T03:04:51.082Z,11.67
2018-10-06T03:05:54.572Z,13.87
2018-10-06T03:06:58.123Z,14.23
2018-10-06T03:08:01.662Z,13.43
2018-10-06T03:09:07.203Z,14.43
2018-10-06T03:10:10.913Z,15.90
2018-10-06T03:11:14.597Z,12.53
2018-10-06T03:12:18.099Z,13.40
2018-10-06T03:13:21.707Z,14.57
2018-10-06T03:14:25.238Z,12.97
2018-10-06T03:15:28.758Z,13.40
2018-10-06T03:16:32.271Z,13.53
2018-10-06T03:17:35.790Z,14.70
2018-10-06T03:18:39.912Z,14.20
2018-10-06T03:19:43.649Z,14.13
2018-10-06T03:20:47.158Z,13.63
2018-10-06T03:21:50.687Z,14.13
2018-10-06T03:22:54.221Z,14.60
2018-10-06T03:23:57.779Z,13.80
2018-10-06T03:25:01.399Z,13.83
2018-10-06T03:26:05.011Z,13.77
2018-10-06T03:27:08.686Z,14.43
2018-10-06T03:28:12.369Z,13.47
2018-10-06T03:29:16.000Z,13.70
2018-10-06T03:30:19.563Z,12.73
2018-10-06T03:31:23.266Z,14.80
2018-10-06T03:32:27.020Z,13.37
2018-10-06T03:33:30.477Z,13.77
2018-10-06T03:34:33.965Z,13.83
2018-10-06T03:35:37.858Z,13.33
2018-10-06T03:36:41.387Z,13.13
2018-10-06T03:37:44.896Z,13.07
2018-10-06T03:38:48.419Z,14.63
2018-10-06T03:39:51.894Z,15.00
2018-10-06T03:40:55.501Z,16.53
2018-10-06T03:41:59.050Z,17.33
2018-10-06T03:43:02.545Z,15.83
2018-10-06T03:44:06.051Z,17.53
2018-10-06T03:45:09.661Z,16.53
2018-10-06T03:46:13.881Z,17.27
2018-10-06T03:47:17.413Z,15.50
2018-10-06T03:48:20.964Z,15.27
2018-10-06T03:49:24.745Z,14.33
2018-10-06T03:50:28.189Z,14.07
2018-10-06T03:51:31.677Z,14.57
2018-10-06T03:52:35.156Z,16.40
2018-10-06T03:53:38.714Z,14.90
2018-10-06T03:54:42.257Z,15.00
2018-10-06T03:55:45.917Z,15.47
2018-10-06T03:56:49.419Z,15.27
2018-10-06T03:57:53.794Z,14.87
2018-10-06T03:58:57.634Z,15.20
2018-10-06T04:00:01.219Z,14.43
2018-10-06T04:01:04.740Z,16.20
2018-10-06T04:02:08.283Z,15.20
2018-10-06T04:03:11.925Z,16.20
2018-10-06T04:04:15.383Z,14.67
2018-10-06T04:05:18.882Z,15.93
2018-10-06T04:06:22.382Z,13.63
2018-10-06T04:07:26.236Z,15.77
2018-10-06T04:08:29.797Z,16.30
2018-10-06T04:09:33.679Z,16.97
2018-10-06T04:10:37.923Z,17.03
2018-10-06T04:11:42.204Z,17.60
2018-10-06T04:12:45.935Z,16.47
2018-10-06T04:13:49.488Z,17.23
2018-10-06T04:14:53.051Z,14.60
2018-10-06T04:15:56.683Z,16.23
2018-10-06T04:17:00.317Z,16.27
2018-10-06T04:18:03.924Z,14.40
2018-10-06T04:19:07.484Z,14.23
2018-10-06T04:20:11.263Z,14.60
2018-10-06T04:21:14.875Z,13.10
2018-10-06T04:22:18.485Z,13.73
2018-10-06T04:23:22.081Z,13.60
2018-10-06T04:24:25.797Z,13.27
2018-10-06T04:25:29.414Z,14.13
2018-10-06T04:26:33.410Z,15.27
2018-10-06T04:27:37.178Z,14.33
2018-10-06T04:28:40.860Z,14.03
2018-10-06T04:29:44.527Z,15.33
2018-10-06T04:30:48.128Z,15.77
2018-10-06T04:31:51.768Z,15.73
2018-10-06T04:32:55.408Z,16.07
2018-10-06T04:33:59.089Z,15.30
2018-10-06T04:35:02.863Z,15.70
2018-10-06T04:36:06.594Z,15.40
2018-10-06T04:37:10.213Z,16.67
2018-10-06T04:38:13.700Z,17.33
2018-10-06T04:39:17.413Z,18.20
2018-10-06T04:40:22.026Z,17.03
2018-10-06T04:41:27.666Z,16.73
2018-10-06T04:42:31.330Z,17.03
2018-10-06T04:43:34.837Z,16.93
2018-10-06T04:44:38.373Z,17.77
2018-10-06T04:45:41.834Z,19.13
2018-10-06T04:46:45.312Z,19.50
2018-10-06T04:47:49.025Z,17.73
2018-10-06T04:48:52.535Z,14.83
2018-10-06T04:49:56.024Z,16.83
2018-10-06T04:50:59.536Z,15.57
2018-10-06T04:52:03.061Z,15.50
2018-10-06T04:53:06.770Z,15.33
2018-10-06T04:54:10.278Z,15.53
2018-10-06T04:55:13.810Z,14.37
2018-10-06T04:56:17.317Z,14.87
2018-10-06T04:57:20.814Z,15.87
2018-10-06T04:58:24.350Z,15.17
2018-10-06T04:59:27.942Z,15.63
2018-10-06T05:00:31.413Z,15.07
2018-10-06T05:01:35.071Z,17.70
2018-10-06T05:02:38.887Z,15.63
2018-10-06T05:03:42.824Z,17.97
2018-10-06T05:04:46.700Z,17.40
2018-10-06T05:05:50.546Z,17.03
2018-10-06T05:06:54.043Z,17.97
2018-10-06T05:07:57.584Z,17.07
2018-10-06T05:09:01.282Z,18.67
2018-10-06T05:10:05.045Z,18.47
2018-10-06T05:11:08.527Z,20.30
2018-10-06T05:12:12.423Z,20.13
2018-10-06T05:13:15.993Z,20.63
2018-10-06T05:14:19.558Z,20.20
2018-10-06T05:15:23.150Z,21.40
2018-10-06T05:16:26.745Z,23.77
2018-10-06T05:17:30.234Z,21.57
2018-10-06T05:18:34.267Z,21.67
2018-10-06T05:19:37.807Z,22.47
2018-10-06T05:20:41.313Z,26.07
2018-10-06T05:21:44.816Z,24.37
2018-10-06T05:22:48.347Z,23.00
2018-10-06T05:23:52.318Z,23.53
2018-10-06T05:24:55.778Z,24.70
2018-10-06T05:25:59.330Z,25.60
2018-10-06T05:27:02.894Z,25.07
2018-10-06T05:28:06.544Z,25.60
2018-10-06T05:29:10.200Z,25.23
2018-10-06T05:30:14.486Z,25.40
2018-10-06T05:31:17.953Z,24.67
2018-10-06T05:32:21.467Z,26.17
2018-10-06T05:33:25.843Z,23.93
2018-10-06T05:34:29.380Z,25.77
2018-10-06T05:35:32.947Z,25.47
2018-10-06T05:36:36.593Z,23.43
2018-10-06T05:37:40.223Z,24.37
2018-10-06T05:38:43.805Z,25.03
2018-10-06T05:39:47.709Z,25.10
2018-10-06T05:40:51.293Z,26.23
2018-10-06T05:41:54.820Z,24.33
2018-10-06T05:42:58.421Z,23.47
2018-10-06T05:44:02.081Z,23.93
2018-10-06T05:45:06.187Z,24.17
2018-10-06T05:46:10.189Z,21.83
2018-10-06T05:47:14.236Z,21.27
2018-10-06T05:48:17.883Z,22.00
2018-10-06T05:49:21.574Z,24.40
2018-10-06T05:50:25.218Z,23.73
2018-10-06T05:51:29.827Z,23.23
2018-10-06T05:52:33.542Z,25.23
2018-10-06T05:53:37.312Z,23.73
2018-10-06T05:54:40.949Z,21.50
2018-10-06T05:55:44.619Z,24.43
2018-10-06T05:56:48.314Z,23.70
2018-10-06T05:57:52.019Z,24.03
2018-10-06T05:58:55.761Z,23.37
2018-10-06T05:59:59.691Z,24.03
2018-10-06T06:01:03.880Z,24.27
2018-10-06T06:02:09.953Z,23.80
2018-10-06T06:03:14.179Z,24.37
2018-10-06T06:04:17.781Z,24.27
2018-10-06T06:05:21.415Z,25.13
2018-10-06T06:06:25.076Z,24.43
2018-10-06T06:07:28.933Z,24.03
2018-10-06T06:08:32.714Z,24.90
2018-10-06T06:09:36.625Z,25.37
2018-10-06T06:10:40.251Z,26.27
2018-10-06T06:11:43.891Z,26.70
2018-10-06T06:12:47.639Z,25.90
2018-10-06T06:13:52.189Z,26.73
2018-10-06T06:14:56.640Z,26.33
2018-10-06T06:16:00.271Z,26.83
2018-10-06T06:17:04.091Z,27.17
2018-10-06T06:18:07.818Z,25.17
2018-10-06T06:19:11.870Z,25.83
2018-10-06T06:20:16.170Z,25.83
2018-10-06T06:21:19.960Z,27.40
2018-10-06T06:22:24.228Z,26.83
2018-10-06T06:23:27.955Z,26.33
2018-10-06T06:24:31.691Z,25.47
2018-10-06T06:25:35.387Z,25.63
2018-10-06T06:26:40.126Z,25.33
2018-10-06T06:27:43.873Z,26.73
2018-10-06T06:28:47.442Z,27.53
2018-10-06T06:29:51.745Z,26.97
2018-10-06T06:30:55.692Z,28.97
2018-10-06T06:31:59.398Z,27.30
2018-10-06T06:33:03.171Z,26.80
2018-10-06T06:34:06.841Z,26.43
2018-10-06T06:35:10.872Z,26.73
2018-10-06T06:36:14.585Z,25.83
2018-10-06T06:37:19.368Z,26.10
2018-10-06T06:38:23.049Z,26.90
2018-10-06T06:39:26.766Z,26.27
2018-10-06T06:40:30.522Z,26.17
2018-10-06T06:41:34.881Z,25.80
2018-10-06T06:42:39.320Z,26.00
2018-10-06T06:43:43.912Z,25.93
2018-10-06T06:44:48.253Z,26.47
2018-10-06T06:45:52.513Z,24.70
2018-10-06T06:46:56.797Z,26.83
2018-10-06T06:48:01.045Z,24.73
2018-10-06T06:49:05.460Z,26.13
2018-10-06T06:50:09.733Z,23.73
2018-10-06T06:51:14.141Z,25.40
2018-10-06T06:52:18.093Z,21.30
2018-10-06T06:53:21.695Z,18.67
2018-10-06T06:54:25.348Z,18.57
2018-10-06T06:55:29.048Z,14.73
2018-10-06T06:56:32.784Z,14.00
2018-10-06T06:57:36.535Z,13.68
2018-10-06T06:58:41.014Z,12.87
2018-10-06T06:59:44.738Z,11.95
2018-10-06T07:00:48.866Z,11.60
2018-10-06T07:01:52.891Z,11.80
2018-10-06T07:02:56.913Z,11.83
2018-10-06T07:04:22.926Z,10.98
2018-10-06T07:05:48.885Z,11.85
2018-10-06T07:07:12.254Z,10.75
2018-10-06T07:08:38.107Z,9.90
2018-10-06T07:09:42.818Z,11.18
2018-10-06T07:10:46.704Z,10.63
2018-10-06T07:11:50.551Z,10.43
2018-10-06T07:12:54.497Z,9.70
2018-10-06T07:13:58.289Z,10.05
2018-10-06T07:15:02.121Z,9.10
2018-10-06T07:16:05.901Z,8.80
2018-10-06T07:17:09.749Z,9.88
2018-10-06T07:18:13.631Z,9.45
2018-10-06T07:19:17.433Z,8.93
2018-10-06T07:20:21.120Z,8.63
2018-10-06T07:21:26.013Z,8.30
2018-10-06T07:22:29.761Z,9.45
2018-10-06T07:23:33.470Z,8.00
2018-10-06T07:24:37.315Z,8.65
2018-10-06T07:25:41.100Z,8.30
2018-10-06T07:26:44.756Z,8.15
2018-10-06T07:27:48.606Z,8.50
2018-10-06T07:28:52.357Z,9.10
2018-10-06T07:29:56.054Z,8.50
2018-10-06T07:30:59.720Z,8.65
2018-10-06T07:32:03.385Z,8.63
2018-10-06T07:33:07.013Z,9.03
2018-10-06T07:34:10.762Z,8.45
2018-10-06T07:35:14.533Z,9.03
2018-10-06T07:36:18.675Z,8.10
2018-10-06T07:37:23.571Z,8.33
2018-10-06T07:38:28.096Z,8.20
2018-10-06T07:39:32.720Z,7.60
2018-10-06T07:40:38.576Z,8.23
2018-10-06T07:41:42.981Z,8.78
2018-10-06T07:42:46.985Z,7.70
2018-10-06T07:43:51.337Z,8.30
2018-10-06T07:44:55.808Z,7.40
2018-10-06T07:45:59.914Z,7.87
2018-10-06T07:47:04.332Z,7.78
2018-10-06T07:48:08.595Z,7.20
2018-10-06T07:49:13.175Z,8.13
2018-10-06T07:50:16.836Z,7.78
2018-10-06T07:51:20.410Z,8.08
2018-10-06T07:52:23.986Z,7.80
2018-10-06T07:53:27.614Z,8.23
2018-10-06T07:54:31.204Z,7.80
2018-10-06T07:55:34.846Z,7.40
2018-10-06T07:56:40.032Z,7.28
2018-10-06T07:57:43.594Z,8.18
2018-10-06T07:58:47.248Z,7.50
2018-10-06T07:59:50.810Z,6.75
2018-10-06T08:00:54.382Z,7.55
2018-10-06T08:01:57.986Z,7.15
2018-10-06T08:03:01.563Z,7.12
2018-10-06T08:04:05.297Z,7.05
2018-10-06T08:05:08.874Z,7.55
2018-10-06T08:06:12.638Z,7.00
2018-10-06T08:07:16.211Z,7.37
2018-10-06T08:08:19.773Z,7.55
2018-10-06T08:09:23.417Z,6.37
2018-10-06T08:10:26.966Z,7.42
2018-10-06T08:11:30.625Z,6.95
2018-10-06T08:12:34.221Z,6.28
2018-10-06T08:13:37.823Z,6.62
2018-10-06T08:14:41.419Z,7.37
2018-10-06T08:15:44.971Z,6.95
2018-10-06T08:16:48.568Z,7.03
2018-10-06T08:17:52.100Z,7.10
2018-10-06T08:18:55.646Z,6.58
2018-10-06T08:19:59.525Z,7.65
2018-10-06T08:21:03.031Z,6.95
2018-10-06T08:22:06.552Z,6.60
2018-10-06T08:23:10.132Z,6.65
2018-10-06T08:24:13.819Z,6.70
2018-10-06T08:25:17.341Z,6.50
2018-10-06T08:26:21.272Z,6.37
2018-10-06T08:27:24.841Z,6.70
2018-10-06T08:28:28.428Z,7.03
2018-10-06T08:29:32.291Z,6.12
2018-10-06T08:30:35.799Z,6.87
2018-10-06T08:31:39.548Z,6.97
2018-10-06T08:32:43.186Z,6.78
2018-10-06T08:33:46.829Z,6.78
2018-10-06T08:34:50.458Z,6.92
2018-10-06T08:35:54.496Z,6.50
2018-10-06T08:36:58.062Z,6.90
2018-10-06T08:38:01.578Z,6.70
2018-10-06T08:39:07.098Z,6.35
2018-10-06T08:40:10.867Z,6.45
2018-10-06T08:41:14.583Z,6.65
2018-10-06T08:42:18.131Z,6.12
2018-10-06T08:43:21.952Z,5.92
2018-10-06T08:44:25.533Z,6.87
2018-10-06T08:45:29.379Z,6.78
2018-10-06T08:46:32.982Z,6.65
2018-10-06T08:47:36.603Z,6.47
2018-10-06T08:48:40.388Z,6.50
2018-10-06T08:49:43.984Z,5.87
2018-10-06T08:50:47.589Z,6.45
2018-10-06T08:51:51.260Z,5.92
2018-10-06T08:52:54.946Z,5.67
2018-10-06T08:53:58.591Z,6.17
2018-10-06T08:55:02.229Z,6.20
2018-10-06T08:56:05.951Z,5.65
2018-10-06T08:57:09.412Z,5.65
2018-10-06T08:58:13.584Z,6.22
2018-10-06T08:59:17.098Z,6.53
2018-10-06T09:00:20.682Z,5.08
2018-10-06T09:01:24.817Z,5.70
2018-10-06T09:02:28.358Z,5.35
2018-10-06T09:03:32.047Z,5.83
2018-10-06T09:04:35.590Z,5.87
2018-10-06T09:05:39.201Z,5.58
2018-10-06T09:06:42.836Z,5.83
2018-10-06T09:07:46.386Z,6.00
2018-10-06T09:08:50.011Z,5.47
2018-10-06T09:09:53.582Z,6.92
2018-10-06T09:10:57.328Z,5.95
2018-10-06T09:12:00.819Z,5.47
2018-10-06T09:13:04.432Z,5.05
2018-10-06T09:14:07.988Z,5.25
2018-10-06T09:15:11.728Z,5.33
2018-10-06T09:16:15.399Z,5.47
2018-10-06T09:17:18.998Z,4.92
2018-10-06T09:18:22.618Z,5.75
2018-10-06T09:19:26.215Z,4.85
2018-10-06T09:20:29.803Z,4.83
2018-10-06T09:21:33.569Z,4.70
2018-10-06T09:22:37.177Z,4.78
2018-10-06T09:23:41.520Z,4.40
2018-10-06T09:24:45.094Z,4.80
2018-10-06T09:25:48.717Z,3.80
2018-10-06T09:26:52.374Z,4.47
2018-10-06T09:27:55.946Z,4.33
2018-10-06T09:28:59.552Z,4.72
2018-10-06T09:30:03.155Z,3.92
2018-10-06T09:31:07.177Z,4.12
2018-10-06T09:32:11.672Z,4.00
2018-10-06T09:33:15.278Z,3.92
2018-10-06T09:34:19.210Z,3.95
2018-10-06T09:35:22.803Z,3.87
2018-10-06T09:36:27.082Z,4.17
2018-10-06T09:37:30.688Z,4.45
2018-10-06T09:38:34.260Z,3.83
2018-10-06T09:39:38.123Z,3.90
2018-10-06T09:40:42.218Z,4.20
2018-10-06T09:41:45.887Z,4.60
2018-10-06T09:42:50.315Z,4.00
2018-10-06T09:43:54.304Z,4.65
2018-10-06T09:44:57.881Z,4.25
2018-10-06T09:46:01.869Z,4.05
2018-10-06T09:47:05.498Z,4.20
2018-10-06T09:48:09.291Z,3.22
2018-10-06T09:49:13.152Z,3.80
2018-10-06T09:50:17.399Z,3.67
2018-10-06T09:51:20.965Z,3.50
2018-10-06T09:52:24.553Z,3.98
2018-10-06T09:53:28.189Z,4.08
2018-10-06T09:54:31.914Z,3.92
2018-10-06T09:55:36.021Z,3.50
2018-10-06T09:56:41.129Z,3.72
2018-10-06T09:57:44.998Z,3.52
2018-10-06T09:58:48.710Z,3.58
2018-10-06T09:59:52.568Z,3.87
2018-10-06T10:01:01.353Z,3.50
2018-10-06T10:02:14.386Z,3.87
2018-10-06T10:03:23.643Z,3.22
2018-10-06T10:04:27.174Z,3.50
2018-10-06T10:05:36.169Z,3.20
2018-10-06T10:06:41.130Z,3.30
2018-10-06T10:07:45.538Z,3.15
2018-10-06T10:08:49.377Z,3.75
2018-10-06T10:09:53.416Z,3.55
2018-10-06T10:10:58.064Z,3.30
2018-10-06T10:12:02.366Z,3.60
2018-10-06T10:13:06.062Z,3.40
2018-10-06T10:14:10.657Z,3.20
2018-10-06T10:15:14.440Z,3.65
2018-10-06T10:16:18.214Z,3.30
2018-10-06T10:17:21.885Z,3.33
2018-10-06T10:18:25.685Z,3.27
2018-10-06T10:19:29.737Z,3.20
2018-10-06T10:20:33.542Z,3.60
2018-10-06T10:21:37.131Z,3.30
2018-10-06T10:22:41.344Z,3.75
2018-10-06T10:23:44.849Z,3.33
2018-10-06T10:24:48.509Z,3.17
2018-10-06T10:25:52.054Z,3.33
2018-10-06T10:26:55.872Z,3.72
2018-10-06T10:27:59.455Z,3.20
2018-10-06T10:29:03.327Z,3.60
2018-10-06T10:30:07.736Z,3.35
2018-10-06T10:31:11.461Z,2.80
2018-10-06T10:32:15.243Z,3.05
2018-10-06T10:33:18.954Z,3.30
2018-10-06T10:34:22.933Z,3.83
2018-10-06T10:35:26.676Z,3.27
2018-10-06T10:36:30.504Z,3.20
2018-10-06T10:37:34.839Z,3.08
2018-10-06T10:38:38.544Z,2.92
2018-10-06T10:39:42.511Z,3.15
2018-10-06T10:40:46.024Z,2.87
2018-10-06T10:41:49.585Z,2.65
2018-10-06T10:42:53.226Z,2.98
2018-10-06T10:43:57.267Z,3.50
2018-10-06T10:45:00.894Z,3.90
2018-10-06T10:46:04.582Z,3.40
2018-10-06T10:47:09.287Z,4.83
2018-10-06T10:48:13.517Z,4.50
2018-10-06T10:49:17.156Z,3.60
2018-10-06T10:50:20.817Z,3.85
2018-10-06T10:51:24.575Z,3.40
2018-10-06T10:52:28.478Z,4.50
2018-10-06T10:53:32.224Z,3.30
2018-10-06T10:54:36.391Z,4.22
2018-10-06T10:55:40.025Z,3.90
2018-10-06T10:56:43.632Z,4.22
2018-10-06T10:57:47.404Z,3.08
2018-10-06T10:58:50.963Z,3.75
2018-10-06T10:59:54.777Z,2.80
2018-10-06T11:00:58.239Z,3.37
2018-10-06T11:02:01.917Z,3.20
2018-10-06T11:03:05.733Z,3.40
2018-10-06T11:04:09.991Z,3.20
2018-10-06T11:05:13.619Z,3.40
2018-10-06T11:06:17.249Z,2.62
2018-10-06T11:07:20.882Z,2.58
2018-10-06T11:08:24.489Z,3.05
2018-10-06T11:09:28.145Z,2.72
2018-10-06T11:10:31.619Z,3.10
2018-10-06T11:11:35.594Z,2.90
2018-10-06T11:12:39.334Z,2.75
2018-10-06T11:13:43.065Z,3.02
2018-10-06T11:14:46.683Z,2.98
2018-10-06T11:15:50.252Z,3.10
2018-10-06T11:16:54.915Z,2.77
2018-10-06T11:17:58.650Z,2.85
2018-10-06T11:19:02.763Z,3.05
2018-10-06T11:20:06.683Z,3.08
2018-10-06T11:21:10.309Z,2.70
2018-10-06T11:22:14.019Z,3.55
2018-10-06T11:23:17.534Z,2.60
2018-10-06T11:24:21.958Z,2.47
2018-10-06T11:25:25.920Z,3.27
2018-10-06T11:26:31.597Z,2.72
2018-10-06T11:27:35.407Z,2.90
2018-10-06T11:28:39.063Z,2.65
2018-10-06T11:29:42.717Z,2.98
2018-10-06T11:30:46.576Z,2.72
2018-10-06T11:31:50.188Z,2.67
2018-10-06T11:32:53.824Z,2.67
2018-10-06T11:33:57.540Z,3.10
2018-10-06T11:35:01.244Z,3.10
2018-10-06T11:36:04.870Z,3.12
2018-10-06T11:37:09.249Z,2.70
2018-10-06T11:38:13.085Z,3.40
2018-10-06T11:39:16.703Z,2.90
2018-10-06T11:40:20.341Z,3.12
2018-10-06T11:41:24.422Z,2.95
2018-10-06T11:42:28.149Z,2.52
2018-10-06T11:43:32.474Z,2.70
2018-10-06T11:44:36.196Z,2.80
2018-10-06T11:45:41.311Z,2.70
2018-10-06T11:46:46.295Z,2.50
2018-10-06T11:47:52.882Z,3.17
2018-10-06T11:48:56.491Z,2.83
2018-10-06T11:50:00.407Z,3.27
2018-10-06T11:51:04.658Z,3.25
2018-10-06T11:52:08.471Z,2.92
2018-10-06T11:53:12.300Z,3.20
2018-10-06T11:54:15.997Z,3.45
2018-10-06T11:55:19.658Z,3.15
2018-10-06T11:56:23.295Z,3.15
2018-10-06T11:57:26.811Z,2.98
2018-10-06T11:58:30.449Z,3.20
2018-10-06T11:59:34.122Z,2.90
2018-10-06T12:00:37.861Z,3.30
2018-10-06T12:01:41.670Z,3.37
2018-10-06T12:02:45.242Z,2.95
2018-10-06T12:03:48.809Z,3.47
2018-10-06T12:04:52.975Z,3.35
2018-10-06T12:05:58.089Z,2.92
2018-10-06T12:07:01.811Z,2.83
2018-10-06T12:08:05.375Z,3.27
2018-10-06T12:09:09.586Z,2.90
2018-10-06T12:10:14.051Z,3.17
2018-10-06T12:11:18.165Z,3.40
2018-10-06T12:12:21.816Z,3.33
2018-10-06T12:13:25.443Z,3.02
2018-10-06T12:14:29.081Z,2.98
2018-10-06T12:15:32.818Z,2.72
2018-10-06T12:16:36.923Z,2.55
2018-10-06T12:17:40.566Z,3.10
2018-10-06T12:18:44.242Z,3.02
2018-10-06T12:19:47.999Z,3.12
2018-10-06T12:20:51.677Z,3.15
2018-10-06T12:21:55.714Z,2.40
2018-10-06T12:22:59.628Z,2.67
2018-10-06T12:24:07.462Z,2.50
2018-10-06T12:25:12.468Z,2.50
2018-10-06T12:26:16.041Z,2.75
2018-10-06T12:27:20.590Z,2.80
2018-10-06T12:28:24.432Z,2.45
2018-10-06T12:29:28.108Z,2.77
2018-10-06T12:30:32.116Z,2.55
2018-10-06T12:31:35.901Z,2.42
2018-10-06T12:32:39.685Z,2.20
2018-10-06T12:33:44.360Z,2.37
2018-10-06T12:34:48.305Z,2.37
2018-10-06T12:35:53.013Z,2.40
2018-10-06T12:36:56.815Z,2.22
2018-10-06T12:38:00.498Z,2.50
2018-10-06T12:39:05.408Z,2.50
2018-10-06T12:40:09.028Z,2.42
2018-10-06T12:41:13.866Z,2.33
2018-10-06T12:42:19.348Z,2.62
2018-10-06T12:43:25.632Z,2.15
2018-10-06T12:44:29.279Z,2.72
2018-10-06T12:45:33.208Z,2.00
2018-10-06T12:46:36.858Z,2.25
2018-10-06T12:47:40.713Z,2.55
2018-10-06T12:48:44.449Z,2.10
2018-10-06T12:49:48.089Z,2.50
2018-10-06T12:50:51.823Z,2.22
2018-10-06T12:51:56.356Z,2.25
2018-10-06T12:52:59.924Z,1.87
2018-10-06T12:54:04.455Z,2.37
2018-10-06T12:55:08.174Z,2.50
2018-10-06T12:56:12.405Z,2.30
2018-10-06T12:57:16.024Z,2.92
2018-10-06T12:58:19.758Z,2.58
2018-10-06T12:59:23.494Z,2.30
2018-10-06T13:00:27.096Z,2.60
2018-10-06T13:01:31.076Z,2.15
2018-10-06T13:02:35.125Z,2.40
2018-10-06T13:03:38.959Z,2.15
2018-10-06T13:04:43.066Z,2.02
2018-10-06T13:05:47.839Z,2.10
2018-10-06T13:06:51.726Z,2.00
2018-10-06T13:07:55.700Z,2.42
2018-10-06T13:08:59.514Z,1.92
2018-10-06T13:10:03.995Z,2.20
2018-10-06T13:11:07.650Z,2.20
2018-10-06T13:12:11.607Z,2.30
2018-10-06T13:13:15.107Z,2.40
2018-10-06T13:14:18.585Z,2.00
2018-10-06T13:15:22.218Z,2.58
2018-10-06T13:16:25.912Z,2.40
2018-10-06T13:17:29.547Z,2.60
2018-10-06T13:18:33.213Z,2.37
2018-10-06T13:19:37.560Z,2.30
2018-10-06T13:20:41.164Z,2.25
2018-10-06T13:21:45.233Z,2.98
2018-10-06T13:22:49.404Z,2.27
2018-10-06T13:23:53.103Z,2.08
2018-10-06T13:24:56.723Z,2.15
2018-10-06T13:26:00.284Z,2.12
2018-10-06T13:27:03.942Z,2.17
2018-10-06T13:28:08.400Z,2.33
2018-10-06T13:29:12.216Z,2.30
2018-10-06T13:30:15.903Z,2.45
2018-10-06T13:31:19.794Z,2.00
2018-10-06T13:32:23.956Z,2.50
2018-10-06T13:33:28.300Z,1.90
2018-10-06T13:34:31.943Z,1.98
2018-10-06T13:35:35.634Z,1.77
2018-10-06T13:36:40.201Z,2.12
2018-10-06T13:37:43.899Z,2.10
2018-10-06T13:38:48.096Z,2.62
2018-10-06T13:39:51.837Z,2.20
2018-10-06T13:40:55.478Z,1.80
2018-10-06T13:41:59.492Z,2.77
2018-10-06T13:43:04.557Z,2.45
2018-10-06T13:44:08.423Z,2.45
2018-10-06T13:45:12.713Z,2.12
2018-10-06T13:46:17.174Z,2.00
2018-10-06T13:47:21.120Z,2.22
2018-10-06T13:48:24.684Z,2.22
2018-10-06T13:49:29.066Z,2.20
2018-10-06T13:50:32.812Z,1.72
2018-10-06T13:51:36.565Z,2.00
2018-10-06T13:52:40.882Z,2.02
2018-10-06T13:53:44.562Z,2.30
2018-10-06T13:54:49.086Z,1.92
2018-10-06T13:55:52.763Z,2.33
2018-10-06T13:56:56.422Z,2.17
2018-10-06T13:58:00.134Z,1.98
2018-10-06T13:59:04.372Z,2.08